This is the latest recevied weather packets stored in our database for station/object KG4WIV. If no packets are shown the sender has not sent any weather packets the latest 10 day(s).
| Time | Temp. | Humidity | Pressure | Rain* | Wind** | Luminosity | Snow |
|---|---|---|---|---|---|---|---|
| 1777953647 | 12.78° C | 81% | 1015.1 hPa | 0 mm | - | - | - |
| 1777951808 | 13.33° C | 77% | 1015.2 hPa | 0 mm | - | - | - |
| 1777950044 | 14.44° C | 74% | 1015.2 hPa | 0 mm | - | - | - |
| 1777949143 | 15° C | 72% | 1015.3 hPa | 0 mm | - | - | - |
| 1777948213 | 15.56° C | 68% | 1015.1 hPa | 0 mm | - | - | - |
| 1777947360 | 16.11° C | 66% | 1014.9 hPa | 0 mm | - | - | - |
| 1777946461 | 17.22° C | 62% | 1014.8 hPa | 0 mm | - | - | - |
| 1777944603 | 18.33° C | 57% | 1014.6 hPa | 0 mm | - | - | - |
| 1777938358 | 22.78° C | 40% | 1014.1 hPa | 0 mm | - | - | - |
| 1777936559 | 23.89° C | 39% | 1014 hPa | 0 mm | - | - | - |
| 1777934757 | 24.44° C | 39% | 1014 hPa | 0 mm | - | - | - |
| 1777933859 | 24.44° C | 37% | 1014 hPa | 0 mm | - | - | - |
| 1777932958 | 24.44° C | 38% | 1014 hPa | 0 mm | - | - | - |
| 1777920330 | 22.78° C | 46% | 1015.8 hPa | 0 mm | - | - | - |
| 1777919430 | 22.78° C | 44% | 1016 hPa | 0 mm | - | - | - |
| 1777917624 | 22.22° C | 46% | 1016.5 hPa | 0 mm | - | - | - |
| 1777916721 | 22.22° C | 47% | 1016.8 hPa | 0 mm | - | - | - |
| 1777915821 | 21.67° C | 49% | 1016.9 hPa | 0 mm | - | - | - |
| 1777911308 | 20.56° C | 48% | 1017.9 hPa | 0 mm | - | - | - |
| 1777909566 | 19.44° C | 52% | 1018.3 hPa | 0 mm | - | - | - |
| 1777905956 | 16.67° C | 62% | 1018.6 hPa | 0 mm | - | - | - |
| 1777904145 | 14.44° C | 75% | 1018.9 hPa | 0 mm | - | - | - |
| 1777899631 | 8.33° C | 95% | 1019.1 hPa | 0 mm | - | - | - |
| 1777897823 | 6.67° C | 96% | 1019 hPa | 0 mm | - | - | - |
| 1777896922 | 5.56° C | 95% | 1019.2 hPa | 0 mm | - | - | - |
* Rain latest hour (hover to see other rain measurements)
** Current wind speed in m/s (hover to see current wind gust speed)